createdAt,value
2018-11-21T16:57:50.584Z,998.77
2018-11-21T16:58:55.171Z,998.77
2018-11-21T17:00:01.259Z,998.83
2018-11-21T17:01:07.350Z,998.82
2018-11-21T17:02:13.442Z,998.84
2018-11-21T17:03:20.028Z,998.84
2018-11-21T17:04:25.609Z,998.84
2018-11-21T17:05:31.708Z,998.82
2018-11-21T17:06:38.287Z,998.83
2018-11-21T17:07:43.899Z,998.82
2018-11-21T17:08:50.456Z,998.85
2018-11-21T17:09:56.056Z,998.86
2018-11-21T17:11:02.147Z,998.85
2018-11-21T17:12:08.738Z,998.85
2018-11-21T17:13:14.415Z,998.87
2018-11-21T17:14:20.895Z,998.81
2018-11-21T17:15:26.488Z,998.81
2018-11-21T17:16:32.573Z,998.80
2018-11-21T17:17:38.675Z,998.81
2018-11-21T17:18:45.251Z,998.79
2018-11-21T17:19:50.862Z,998.83
2018-11-21T17:20:56.923Z,998.79
2018-11-21T17:22:03.009Z,998.80
2018-11-21T17:23:09.110Z,998.81
2018-11-21T17:24:15.183Z,998.79
2018-11-21T17:25:21.278Z,998.77
2018-11-21T17:26:27.370Z,998.78
2018-11-21T17:27:33.460Z,998.80
2018-11-21T17:28:39.613Z,998.78
2018-11-21T17:29:53.539Z,998.81
2018-11-21T17:30:52.205Z,998.84
2018-11-21T17:31:57.807Z,998.85
2018-11-21T17:33:03.911Z,998.83
2018-11-21T17:34:10.034Z,998.89
2018-11-21T17:35:16.548Z,998.84
2018-11-21T17:36:22.154Z,998.86
2018-11-21T17:37:28.240Z,998.82
2018-11-21T17:38:34.340Z,998.84
2018-11-21T17:39:40.412Z,998.83
2018-11-21T17:40:46.487Z,998.87
2018-11-21T17:41:52.586Z,998.87
2018-11-21T17:42:58.668Z,998.85
2018-11-21T17:44:04.761Z,998.88
2018-11-21T17:45:11.334Z,998.90
2018-11-21T17:46:16.917Z,998.90
2018-11-21T17:47:23.013Z,998.89
2018-11-21T17:48:29.102Z,998.84
2018-11-21T17:49:35.191Z,998.90
2018-11-21T17:50:41.328Z,998.89
2018-11-21T17:51:47.361Z,998.90
2018-11-21T17:52:53.450Z,998.90
2018-11-21T17:53:59.536Z,998.88
2018-11-21T17:55:05.621Z,998.91
2018-11-21T17:56:11.719Z,998.89
2018-11-21T17:57:17.820Z,998.93
2018-11-21T17:58:23.917Z,998.90
2018-11-21T17:59:29.978Z,998.90
2018-11-21T18:00:36.066Z,998.94
2018-11-21T18:01:42.149Z,998.90
2018-11-21T18:02:48.242Z,998.96
2018-11-21T18:03:54.330Z,998.99
2018-11-21T18:05:00.407Z,998.98
2018-11-21T18:06:06.501Z,999.01
2018-11-21T18:07:12.606Z,999.00
2018-11-21T18:08:18.682Z,998.99
2018-11-21T18:09:24.767Z,999.03
